Terminal Aerodrome Forecast
Issued by NWS

Home | Current Version | Previous Version | Text Only | Print | Product List | Glossary On
Versions: 1 2 3 4 5 6 7 8 9 10 11 12 13 14 15 16 17 18 19 20 21 22 23 24
000
FTUS43 KDTX 221400 AAA
TAFDET
TAF AMD
KDET 221440Z 2215/2312 08005KT P6SM SCT030
     FM221900 14005KT P6SM SCT030 BKN050
     FM230100 08005KT P6SM SCT050 BKN120 OVC250
     FM230700 05005KT 4SM BR FEW015 SCT120=

USA.gov is the U.S. government's official web portal to all federal, state and local government web resources and services.